sensor_id;sensor_type;location;lat;lon;timestamp;temperature;humidity
20182;DHT22;10250;50.756;6.172;2023-04-03T00:00:50;6.00;1.00
20182;DHT22;10250;50.756;6.172;2023-04-03T00:02:51;6.00;1.00
20182;DHT22;10250;50.756;6.172;2023-04-03T00:04:51;6.10;99.90
20182;DHT22;10250;50.756;6.172;2023-04-03T00:06:52;6.20;99.90
20182;DHT22;10250;50.756;6.172;2023-04-03T00:08:53;5.90;99.90
20182;DHT22;10250;50.756;6.172;2023-04-03T00:10:53;6.00;99.90
20182;DHT22;10250;50.756;6.172;2023-04-03T00:12:54;6.10;99.90
20182;DHT22;10250;50.756;6.172;2023-04-03T00:14:55;6.30;99.90
20182;DHT22;10250;50.756;6.172;2023-04-03T00:16:55;6.40;99.90
20182;DHT22;10250;50.756;6.172;2023-04-03T00:18:56;6.40;99.90
20182;DHT22;10250;50.756;6.172;2023-04-03T00:20:57;6.40;99.90
20182;DHT22;10250;50.756;6.172;2023-04-03T00:22:57;6.30;99.90
20182;DHT22;10250;50.756;6.172;2023-04-03T00:24:58;6.30;99.90
20182;DHT22;10250;50.756;6.172;2023-04-03T00:26:58;6.30;99.90
20182;DHT22;10250;50.756;6.172;2023-04-03T00:28:59;6.20;99.90
20182;DHT22;10250;50.756;6.172;2023-04-03T00:31:00;6.10;99.90
20182;DHT22;10250;50.756;6.172;2023-04-03T00:33:01;6.20;99.90
20182;DHT22;10250;50.756;6.172;2023-04-03T00:35:02;6.40;99.90
20182;DHT22;10250;50.756;6.172;2023-04-03T00:37:02;6.30;99.90
20182;DHT22;10250;50.756;6.172;2023-04-03T00:39:03;6.20;99.90
20182;DHT22;10250;50.756;6.172;2023-04-03T00:41:04;6.10;99.90
20182;DHT22;10250;50.756;6.172;2023-04-03T00:43:25;6.10;99.90
20182;DHT22;10250;50.756;6.172;2023-04-03T00:45:36;6.10;99.90
20182;DHT22;10250;50.756;6.172;2023-04-03T00:47:39;6.20;99.90
20182;DHT22;10250;50.756;6.172;2023-04-03T00:49:41;6.30;99.90
20182;DHT22;10250;50.756;6.172;2023-04-03T00:51:43;6.30;99.90
20182;DHT22;10250;50.756;6.172;2023-04-03T00:53:47;6.10;99.90
20182;DHT22;10250;50.756;6.172;2023-04-03T00:55:49;6.10;99.90
20182;DHT22;10250;50.756;6.172;2023-04-03T00:57:52;6.20;99.90
20182;DHT22;10250;50.756;6.172;2023-04-03T00:59:57;6.10;99.90
20182;DHT22;10250;50.756;6.172;2023-04-03T01:02:00;6.00;99.90
20182;DHT22;10250;50.756;6.172;2023-04-03T01:04:01;6.30;99.90
20182;DHT22;10250;50.756;6.172;2023-04-03T01:06:03;6.30;99.90
20182;DHT22;10250;50.756;6.172;2023-04-03T01:08:04;6.10;99.90
20182;DHT22;10250;50.756;6.172;2023-04-03T01:10:09;6.10;99.90
20182;DHT22;10250;50.756;6.172;2023-04-03T01:12:30;6.10;99.90
20182;DHT22;10250;50.756;6.172;2023-04-03T01:14:32;6.10;99.90
20182;DHT22;10250;50.756;6.172;2023-04-03T01:16:32;6.20;99.90
20182;DHT22;10250;50.756;6.172;2023-04-03T01:18:36;6.10;99.90
20182;DHT22;10250;50.756;6.172;2023-04-03T01:25:06;6.10;99.90
20182;DHT22;10250;50.756;6.172;2023-04-03T01:27:09;6.00;99.90
20182;DHT22;10250;50.756;6.172;2023-04-03T01:29:10;6.00;99.90
20182;DHT22;10250;50.756;6.172;2023-04-03T01:31:25;6.20;99.90
20182;DHT22;10250;50.756;6.172;2023-04-03T01:33:27;6.10;99.90
20182;DHT22;10250;50.756;6.172;2023-04-03T01:35:27;6.20;99.90
20182;DHT22;10250;50.756;6.172;2023-04-03T01:37:28;6.10;99.90
20182;DHT22;10250;50.756;6.172;2023-04-03T01:39:29;6.30;99.90
20182;DHT22;10250;50.756;6.172;2023-04-03T01:41:30;6.10;99.90
20182;DHT22;10250;50.756;6.172;2023-04-03T01:43:30;6.00;99.90
20182;DHT22;10250;50.756;6.172;2023-04-03T01:45:31;5.90;99.90
20182;DHT22;10250;50.756;6.172;2023-04-03T01:47:32;5.80;99.90
20182;DHT22;10250;50.756;6.172;2023-04-03T01:49:32;5.80;99.90
20182;DHT22;10250;50.756;6.172;2023-04-03T01:51:33;5.80;99.90
20182;DHT22;10250;50.756;6.172;2023-04-03T01:53:34;5.70;99.90
20182;DHT22;10250;50.756;6.172;2023-04-03T01:55:35;5.70;99.90
20182;DHT22;10250;50.756;6.172;2023-04-03T01:57:35;5.60;99.90
20182;DHT22;10250;50.756;6.172;2023-04-03T01:59:36;5.70;99.90
20182;DHT22;10250;50.756;6.172;2023-04-03T02:01:36;5.60;99.90
20182;DHT22;10250;50.756;6.172;2023-04-03T02:03:37;5.60;99.90
20182;DHT22;10250;50.756;6.172;2023-04-03T02:05:38;5.40;1.00
20182;DHT22;10250;50.756;6.172;2023-04-03T02:07:38;5.50;1.00
20182;DHT22;10250;50.756;6.172;2023-04-03T02:09:39;5.50;99.90
20182;DHT22;10250;50.756;6.172;2023-04-03T02:11:40;5.50;1.00
20182;DHT22;10250;50.756;6.172;2023-04-03T02:13:40;5.50;1.00
20182;DHT22;10250;50.756;6.172;2023-04-03T02:15:41;5.40;1.00
20182;DHT22;10250;50.756;6.172;2023-04-03T02:17:41;5.50;1.00
20182;DHT22;10250;50.756;6.172;2023-04-03T02:19:42;5.50;1.00
20182;DHT22;10250;50.756;6.172;2023-04-03T02:21:42;5.40;1.00
20182;DHT22;10250;50.756;6.172;2023-04-03T02:23:43;5.50;1.00
20182;DHT22;10250;50.756;6.172;2023-04-03T02:25:44;5.50;1.00
20182;DHT22;10250;50.756;6.172;2023-04-03T02:27:44;5.50;1.00
20182;DHT22;10250;50.756;6.172;2023-04-03T02:29:45;5.40;1.00
20182;DHT22;10250;50.756;6.172;2023-04-03T02:31:45;5.40;1.00
20182;DHT22;10250;50.756;6.172;2023-04-03T02:33:46;5.40;1.00
20182;DHT22;10250;50.756;6.172;2023-04-03T02:35:46;5.30;1.00
20182;DHT22;10250;50.756;6.172;2023-04-03T02:37:54;5.30;1.00
20182;DHT22;10250;50.756;6.172;2023-04-03T02:39:55;5.40;1.00
20182;DHT22;10250;50.756;6.172;2023-04-03T02:41:55;5.20;1.00
20182;DHT22;10250;50.756;6.172;2023-04-03T02:43:56;5.30;1.00
20182;DHT22;10250;50.756;6.172;2023-04-03T02:45:56;5.40;1.00
20182;DHT22;10250;50.756;6.172;2023-04-03T02:47:57;5.10;1.00
20182;DHT22;10250;50.756;6.172;2023-04-03T02:49:57;5.20;1.00
20182;DHT22;10250;50.756;6.172;2023-04-03T02:51:58;5.20;1.00
20182;DHT22;10250;50.756;6.172;2023-04-03T02:53:58;5.20;1.00
20182;DHT22;10250;50.756;6.172;2023-04-03T02:55:59;5.30;1.00
20182;DHT22;10250;50.756;6.172;2023-04-03T02:58:00;5.30;1.00
20182;DHT22;10250;50.756;6.172;2023-04-03T03:00:00;5.30;1.00
20182;DHT22;10250;50.756;6.172;2023-04-03T03:02:01;5.30;1.00
20182;DHT22;10250;50.756;6.172;2023-04-03T03:04:02;5.20;1.00
20182;DHT22;10250;50.756;6.172;2023-04-03T03:06:07;5.30;1.00
20182;DHT22;10250;50.756;6.172;2023-04-03T03:08:08;5.20;1.00
20182;DHT22;10250;50.756;6.172;2023-04-03T03:10:09;5.40;1.00
20182;DHT22;10250;50.756;6.172;2023-04-03T03:12:09;5.50;1.00
20182;DHT22;10250;50.756;6.172;2023-04-03T03:14:10;5.40;1.00
20182;DHT22;10250;50.756;6.172;2023-04-03T03:16:11;5.50;1.00
20182;DHT22;10250;50.756;6.172;2023-04-03T03:18:11;5.40;1.00
20182;DHT22;10250;50.756;6.172;2023-04-03T03:20:12;5.60;1.00
20182;DHT22;10250;50.756;6.172;2023-04-03T03:22:16;5.50;1.00
20182;DHT22;10250;50.756;6.172;2023-04-03T03:24:17;5.40;1.00
20182;DHT22;10250;50.756;6.172;2023-04-03T03:26:18;5.30;1.00
20182;DHT22;10250;50.756;6.172;2023-04-03T03:28:18;5.30;1.00
20182;DHT22;10250;50.756;6.172;2023-04-03T03:30:19;5.20;1.00
20182;DHT22;10250;50.756;6.172;2023-04-03T03:32:19;5.20;1.00
20182;DHT22;10250;50.756;6.172;2023-04-03T03:34:20;5.30;1.00
20182;DHT22;10250;50.756;6.172;2023-04-03T03:36:21;5.10;1.00
20182;DHT22;10250;50.756;6.172;2023-04-03T03:38:22;5.20;1.00
20182;DHT22;10250;50.756;6.172;2023-04-03T03:40:22;5.40;1.00
20182;DHT22;10250;50.756;6.172;2023-04-03T03:42:23;5.20;1.00
20182;DHT22;10250;50.756;6.172;2023-04-03T03:44:23;5.10;1.00
20182;DHT22;10250;50.756;6.172;2023-04-03T03:46:24;5.20;1.00
20182;DHT22;10250;50.756;6.172;2023-04-03T03:48:25;5.00;1.00
20182;DHT22;10250;50.756;6.172;2023-04-03T03:50:25;5.10;1.00
20182;DHT22;10250;50.756;6.172;2023-04-03T03:52:26;5.20;1.00
20182;DHT22;10250;50.756;6.172;2023-04-03T03:54:26;5.10;1.00
20182;DHT22;10250;50.756;6.172;2023-04-03T03:56:27;5.10;1.00
20182;DHT22;10250;50.756;6.172;2023-04-03T03:58:28;5.10;1.00
20182;DHT22;10250;50.756;6.172;2023-04-03T04:00:28;4.80;1.00
20182;DHT22;10250;50.756;6.172;2023-04-03T04:02:29;4.90;1.00
20182;DHT22;10250;50.756;6.172;2023-04-03T04:04:30;4.90;1.00
20182;DHT22;10250;50.756;6.172;2023-04-03T04:06:30;5.00;1.00
20182;DHT22;10250;50.756;6.172;2023-04-03T04:08:31;4.80;1.00
20182;DHT22;10250;50.756;6.172;2023-04-03T04:10:32;4.60;92.50
20182;DHT22;10250;50.756;6.172;2023-04-03T04:12:32;4.80;99.90
20182;DHT22;10250;50.756;6.172;2023-04-03T04:14:33;4.80;59.10
20182;DHT22;10250;50.756;6.172;2023-04-03T04:16:34;4.80;9.70
20182;DHT22;10250;50.756;6.172;2023-04-03T04:18:34;4.70;99.90
20182;DHT22;10250;50.756;6.172;2023-04-03T04:20:35;4.70;99.90
20182;DHT22;10250;50.756;6.172;2023-04-03T04:22:36;4.70;1.00
20182;DHT22;10250;50.756;6.172;2023-04-03T04:24:36;4.60;1.00
20182;DHT22;10250;50.756;6.172;2023-04-03T04:26:37;4.70;99.90
20182;DHT22;10250;50.756;6.172;2023-04-03T04:28:37;4.80;11.20
20182;DHT22;10250;50.756;6.172;2023-04-03T04:30:38;4.80;1.00
20182;DHT22;10250;50.756;6.172;2023-04-03T04:32:39;4.90;1.00
20182;DHT22;10250;50.756;6.172;2023-04-03T04:34:40;4.80;1.00
20182;DHT22;10250;50.756;6.172;2023-04-03T04:36:40;4.80;99.90
20182;DHT22;10250;50.756;6.172;2023-04-03T04:38:41;4.90;1.00
20182;DHT22;10250;50.756;6.172;2023-04-03T04:40:42;4.60;1.00
20182;DHT22;10250;50.756;6.172;2023-04-03T04:42:42;4.70;99.90
20182;DHT22;10250;50.756;6.172;2023-04-03T04:44:43;4.60;1.00
20182;DHT22;10250;50.756;6.172;2023-04-03T04:46:43;4.70;99.90
20182;DHT22;10250;50.756;6.172;2023-04-03T04:48:44;4.80;53.00
20182;DHT22;10250;50.756;6.172;2023-04-03T04:50:45;4.70;18.10
20182;DHT22;10250;50.756;6.172;2023-04-03T04:52:46;4.70;1.00
20182;DHT22;10250;50.756;6.172;2023-04-03T04:54:47;4.70;99.90
20182;DHT22;10250;50.756;6.172;2023-04-03T04:56:47;4.80;1.00
20182;DHT22;10250;50.756;6.172;2023-04-03T04:58:48;4.80;1.00
20182;DHT22;10250;50.756;6.172;2023-04-03T05:00:48;4.90;1.00
20182;DHT22;10250;50.756;6.172;2023-04-03T05:02:49;4.70;1.00
20182;DHT22;10250;50.756;6.172;2023-04-03T05:04:49;4.70;99.90
20182;DHT22;10250;50.756;6.172;2023-04-03T05:06:51;4.70;1.00
20182;DHT22;10250;50.756;6.172;2023-04-03T05:08:52;4.70;99.90
20182;DHT22;10250;50.756;6.172;2023-04-03T05:10:53;4.40;19.90
20182;DHT22;10250;50.756;6.172;2023-04-03T05:12:53;4.30;1.00
20182;DHT22;10250;50.756;6.172;2023-04-03T05:14:54;4.50;1.00
20182;DHT22;10250;50.756;6.172;2023-04-03T05:16:55;4.50;1.00
20182;DHT22;10250;50.756;6.172;2023-04-03T05:18:55;4.50;99.90
20182;DHT22;10250;50.756;6.172;2023-04-03T05:20:56;4.40;62.20
20182;DHT22;10250;50.756;6.172;2023-04-03T05:22:58;4.50;99.90
20182;DHT22;10250;50.756;6.172;2023-04-03T05:24:58;4.40;1.00
20182;DHT22;10250;50.756;6.172;2023-04-03T05:26:59;4.50;99.90
20182;DHT22;10250;50.756;6.172;2023-04-03T05:28:59;4.50;99.90
20182;DHT22;10250;50.756;6.172;2023-04-03T05:31:00;4.60;99.90
20182;DHT22;10250;50.756;6.172;2023-04-03T05:33:00;4.70;99.90
20182;DHT22;10250;50.756;6.172;2023-04-03T05:35:01;4.50;99.90
20182;DHT22;10250;50.756;6.172;2023-04-03T05:37:02;4.40;1.00
20182;DHT22;10250;50.756;6.172;2023-04-03T05:39:04;4.40;1.00
20182;DHT22;10250;50.756;6.172;2023-04-03T05:41:05;4.40;1.00
20182;DHT22;10250;50.756;6.172;2023-04-03T05:43:06;4.40;1.00
20182;DHT22;10250;50.756;6.172;2023-04-03T05:45:07;4.50;1.00
20182;DHT22;10250;50.756;6.172;2023-04-03T05:47:07;4.60;99.90
20182;DHT22;10250;50.756;6.172;2023-04-03T05:49:08;4.60;99.90
20182;DHT22;10250;50.756;6.172;2023-04-03T05:51:17;4.40;99.90
20182;DHT22;10250;50.756;6.172;2023-04-03T05:53:23;4.40;1.00
20182;DHT22;10250;50.756;6.172;2023-04-03T05:55:25;4.30;1.00
20182;DHT22;10250;50.756;6.172;2023-04-03T05:59:35;4.60;1.00
20182;DHT22;10250;50.756;6.172;2023-04-03T06:01:36;4.70;1.00
20182;DHT22;10250;50.756;6.172;2023-04-03T06:03:37;5.00;1.00
20182;DHT22;10250;50.756;6.172;2023-04-03T06:05:39;5.10;1.00
20182;DHT22;10250;50.756;6.172;2023-04-03T06:07:40;5.10;1.00
20182;DHT22;10250;50.756;6.172;2023-04-03T06:09:41;5.20;1.00
20182;DHT22;10250;50.756;6.172;2023-04-03T06:11:42;5.10;1.00
20182;DHT22;10250;50.756;6.172;2023-04-03T06:13:42;5.10;1.00
20182;DHT22;10250;50.756;6.172;2023-04-03T06:15:43;5.30;1.00
20182;DHT22;10250;50.756;6.172;2023-04-03T06:17:43;5.40;1.00
20182;DHT22;10250;50.756;6.172;2023-04-03T06:19:44;5.40;1.00
20182;DHT22;10250;50.756;6.172;2023-04-03T06:21:46;5.50;1.00
20182;DHT22;10250;50.756;6.172;2023-04-03T06:23:47;5.40;1.00
20182;DHT22;10250;50.756;6.172;2023-04-03T06:25:47;5.50;1.00
20182;DHT22;10250;50.756;6.172;2023-04-03T06:27:48;5.50;1.00
20182;DHT22;10250;50.756;6.172;2023-04-03T06:29:49;5.60;1.00
20182;DHT22;10250;50.756;6.172;2023-04-03T06:31:50;5.80;1.00
20182;DHT22;10250;50.756;6.172;2023-04-03T06:33:51;5.80;99.90
20182;DHT22;10250;50.756;6.172;2023-04-03T06:35:57;5.40;1.00
20182;DHT22;10250;50.756;6.172;2023-04-03T06:37:57;5.50;1.00
20182;DHT22;10250;50.756;6.172;2023-04-03T06:39:58;5.50;1.00
20182;DHT22;10250;50.756;6.172;2023-04-03T06:42:00;5.70;1.00
20182;DHT22;10250;50.756;6.172;2023-04-03T06:44:01;5.90;1.00
20182;DHT22;10250;50.756;6.172;2023-04-03T06:46:03;5.90;99.90
20182;DHT22;10250;50.756;6.172;2023-04-03T06:48:03;5.90;99.90
20182;DHT22;10250;50.756;6.172;2023-04-03T06:50:05;5.90;99.90
20182;DHT22;10250;50.756;6.172;2023-04-03T06:52:07;6.00;99.90
20182;DHT22;10250;50.756;6.172;2023-04-03T06:54:08;6.10;99.90
20182;DHT22;10250;50.756;6.172;2023-04-03T06:56:08;6.00;99.90
20182;DHT22;10250;50.756;6.172;2023-04-03T06:58:09;6.00;99.90
20182;DHT22;10250;50.756;6.172;2023-04-03T07:00:11;5.90;99.90
20182;DHT22;10250;50.756;6.172;2023-04-03T07:02:12;5.80;99.90
20182;DHT22;10250;50.756;6.172;2023-04-03T07:04:13;5.60;99.90
20182;DHT22;10250;50.756;6.172;2023-04-03T07:06:15;5.60;1.00
20182;DHT22;10250;50.756;6.172;2023-04-03T07:08:16;5.60;99.90
20182;DHT22;10250;50.756;6.172;2023-04-03T07:10:17;6.00;99.90
20182;DHT22;10250;50.756;6.172;2023-04-03T07:12:18;6.10;99.90
20182;DHT22;10250;50.756;6.172;2023-04-03T07:14:18;6.20;99.90
20182;DHT22;10250;50.756;6.172;2023-04-03T07:16:19;5.90;99.90
20182;DHT22;10250;50.756;6.172;2023-04-03T07:18:20;5.80;99.90
20182;DHT22;10250;50.756;6.172;2023-04-03T07:20:21;5.90;99.90
20182;DHT22;10250;50.756;6.172;2023-04-03T07:22:22;6.10;99.90
20182;DHT22;10250;50.756;6.172;2023-04-03T07:24:23;6.40;99.90
20182;DHT22;10250;50.756;6.172;2023-04-03T07:26:23;6.50;99.90
20182;DHT22;10250;50.756;6.172;2023-04-03T07:28:24;6.40;99.90
20182;DHT22;10250;50.756;6.172;2023-04-03T07:30:25;6.60;99.90
20182;DHT22;10250;50.756;6.172;2023-04-03T07:32:26;6.40;99.90
20182;DHT22;10250;50.756;6.172;2023-04-03T07:34:27;6.30;99.90
20182;DHT22;10250;50.756;6.172;2023-04-03T07:36:27;6.20;99.90
20182;DHT22;10250;50.756;6.172;2023-04-03T07:38:29;6.30;99.90
20182;DHT22;10250;50.756;6.172;2023-04-03T07:40:29;6.30;99.90
20182;DHT22;10250;50.756;6.172;2023-04-03T07:42:30;6.10;99.90
20182;DHT22;10250;50.756;6.172;2023-04-03T07:44:31;6.40;99.90
20182;DHT22;10250;50.756;6.172;2023-04-03T07:46:32;6.50;99.90
20182;DHT22;10250;50.756;6.172;2023-04-03T07:48:32;6.40;99.90
20182;DHT22;10250;50.756;6.172;2023-04-03T07:50:33;6.40;99.90
20182;DHT22;10250;50.756;6.172;2023-04-03T07:52:33;6.60;99.90
20182;DHT22;10250;50.756;6.172;2023-04-03T07:54:34;6.60;99.90
20182;DHT22;10250;50.756;6.172;2023-04-03T07:56:35;6.40;99.90
20182;DHT22;10250;50.756;6.172;2023-04-03T07:58:36;6.60;99.90
20182;DHT22;10250;50.756;6.172;2023-04-03T08:00:37;6.50;99.90
20182;DHT22;10250;50.756;6.172;2023-04-03T08:02:38;6.40;99.90
20182;DHT22;10250;50.756;6.172;2023-04-03T08:04:39;6.10;99.90
20182;DHT22;10250;50.756;6.172;2023-04-03T08:06:40;5.90;99.90
20182;DHT22;10250;50.756;6.172;2023-04-03T08:08:40;6.20;99.90
20182;DHT22;10250;50.756;6.172;2023-04-03T08:10:42;6.40;99.90
20182;DHT22;10250;50.756;6.172;2023-04-03T08:12:46;6.70;99.90
20182;DHT22;10250;50.756;6.172;2023-04-03T08:14:46;6.60;99.90
20182;DHT22;10250;50.756;6.172;2023-04-03T08:16:48;6.70;99.90
20182;DHT22;10250;50.756;6.172;2023-04-03T08:18:49;6.70;99.90
20182;DHT22;10250;50.756;6.172;2023-04-03T08:20:50;6.60;99.90
20182;DHT22;10250;50.756;6.172;2023-04-03T08:22:50;6.40;99.90
20182;DHT22;10250;50.756;6.172;2023-04-03T08:24:51;6.60;99.90
20182;DHT22;10250;50.756;6.172;2023-04-03T08:26:51;6.60;99.90
20182;DHT22;10250;50.756;6.172;2023-04-03T08:28:52;6.70;99.90
20182;DHT22;10250;50.756;6.172;2023-04-03T08:30:53;7.10;99.90
20182;DHT22;10250;50.756;6.172;2023-04-03T08:32:53;7.10;99.90
20182;DHT22;10250;50.756;6.172;2023-04-03T08:34:54;7.10;99.90
20182;DHT22;10250;50.756;6.172;2023-04-03T08:36:54;7.10;99.90
20182;DHT22;10250;50.756;6.172;2023-04-03T08:38:56;6.80;99.90
20182;DHT22;10250;50.756;6.172;2023-04-03T08:41:07;6.70;99.90
20182;DHT22;10250;50.756;6.172;2023-04-03T08:43:34;6.80;99.90
20182;DHT22;10250;50.756;6.172;2023-04-03T08:45:49;6.60;99.90
20182;DHT22;10250;50.756;6.172;2023-04-03T08:48:00;6.40;99.90
20182;DHT22;10250;50.756;6.172;2023-04-03T08:50:05;6.90;99.90
20182;DHT22;10250;50.756;6.172;2023-04-03T08:52:11;7.00;99.90
20182;DHT22;10250;50.756;6.172;2023-04-03T08:54:32;7.10;99.90
20182;DHT22;10250;50.756;6.172;2023-04-03T08:56:34;7.40;99.90
20182;DHT22;10250;50.756;6.172;2023-04-03T08:58:49;7.50;99.90
20182;DHT22;10250;50.756;6.172;2023-04-03T09:01:49;7.40;99.90
20182;DHT22;10250;50.756;6.172;2023-04-03T09:03:33;7.20;99.90
20182;DHT22;10250;50.756;6.172;2023-04-03T09:05:54;7.20;99.90
20182;DHT22;10250;50.756;6.172;2023-04-03T09:10:12;7.00;99.90
20182;DHT22;10250;50.756;6.172;2023-04-03T09:14:37;7.00;99.90
20182;DHT22;10250;50.756;6.172;2023-04-03T09:17:04;7.00;99.90
20182;DHT22;10250;50.756;6.172;2023-04-03T09:21:37;6.80;99.90
20182;DHT22;10250;50.756;6.172;2023-04-03T09:23:47;6.60;99.90
20182;DHT22;10250;50.756;6.172;2023-04-03T09:25:52;6.60;99.90
20182;DHT22;10250;50.756;6.172;2023-04-03T09:27:53;6.70;99.90
20182;DHT22;10250;50.756;6.172;2023-04-03T09:29:56;6.50;99.90
20182;DHT22;10250;50.756;6.172;2023-04-03T09:32:00;6.60;99.90
20182;DHT22;10250;50.756;6.172;2023-04-03T09:34:10;6.70;99.90
20182;DHT22;10250;50.756;6.172;2023-04-03T09:36:13;6.40;99.90
20182;DHT22;10250;50.756;6.172;2023-04-03T09:40:28;6.30;99.90
20182;DHT22;10250;50.756;6.172;2023-04-03T09:42:30;6.50;99.90
20182;DHT22;10250;50.756;6.172;2023-04-03T09:44:34;6.50;99.90
20182;DHT22;10250;50.756;6.172;2023-04-03T09:46:36;6.40;99.90
20182;DHT22;10250;50.756;6.172;2023-04-03T09:48:38;6.60;99.90
20182;DHT22;10250;50.756;6.172;2023-04-03T09:51:01;6.40;99.90
20182;DHT22;10250;50.756;6.172;2023-04-03T09:53:11;6.70;99.90
20182;DHT22;10250;50.756;6.172;2023-04-03T09:55:26;6.70;99.90
20182;DHT22;10250;50.756;6.172;2023-04-03T09:57:32;6.60;99.90
20182;DHT22;10250;50.756;6.172;2023-04-03T09:59:33;6.80;99.90
20182;DHT22;10250;50.756;6.172;2023-04-03T10:01:38;7.00;99.90
20182;DHT22;10250;50.756;6.172;2023-04-03T10:03:39;7.00;99.90
20182;DHT22;10250;50.756;6.172;2023-04-03T10:05:46;7.10;99.90
20182;DHT22;10250;50.756;6.172;2023-04-03T10:07:47;6.90;99.90
20182;DHT22;10250;50.756;6.172;2023-04-03T10:09:55;7.20;99.90
20182;DHT22;10250;50.756;6.172;2023-04-03T10:12:09;7.50;99.90
20182;DHT22;10250;50.756;6.172;2023-04-03T10:14:16;7.20;99.90
20182;DHT22;10250;50.756;6.172;2023-04-03T10:16:25;7.10;99.90
20182;DHT22;10250;50.756;6.172;2023-04-03T10:20:43;7.10;99.90
20182;DHT22;10250;50.756;6.172;2023-04-03T10:25:08;7.10;99.90
20182;DHT22;10250;50.756;6.172;2023-04-03T10:27:18;7.00;99.90
20182;DHT22;10250;50.756;6.172;2023-04-03T10:34:28;6.80;99.90
20182;DHT22;10250;50.756;6.172;2023-04-03T10:46:18;6.90;99.90
20182;DHT22;10250;50.756;6.172;2023-04-03T10:48:43;6.80;99.90
20182;DHT22;10250;50.756;6.172;2023-04-03T10:55:13;7.70;99.90
20182;DHT22;10250;50.756;6.172;2023-04-03T10:57:16;7.30;99.90
20182;DHT22;10250;50.756;6.172;2023-04-03T10:59:25;7.30;99.90
20182;DHT22;10250;50.756;6.172;2023-04-03T11:01:34;7.00;99.90
20182;DHT22;10250;50.756;6.172;2023-04-03T11:03:39;7.00;99.90
20182;DHT22;10250;50.756;6.172;2023-04-03T11:05:47;7.30;99.90
20182;DHT22;10250;50.756;6.172;2023-04-03T11:07:51;7.40;99.90
20182;DHT22;10250;50.756;6.172;2023-04-03T11:09:56;7.30;99.90
20182;DHT22;10250;50.756;6.172;2023-04-03T11:12:15;7.00;99.90
20182;DHT22;10250;50.756;6.172;2023-04-03T11:14:35;7.00;99.90
20182;DHT22;10250;50.756;6.172;2023-04-03T11:16:42;7.00;99.90
20182;DHT22;10250;50.756;6.172;2023-04-03T11:18:47;7.40;99.90
20182;DHT22;10250;50.756;6.172;2023-04-03T11:21:11;7.40;99.90
20182;DHT22;10250;50.756;6.172;2023-04-03T11:23:20;7.50;99.90
20182;DHT22;10250;50.756;6.172;2023-04-03T11:25:24;7.30;99.90
20182;DHT22;10250;50.756;6.172;2023-04-03T11:27:27;7.10;99.90
20182;DHT22;10250;50.756;6.172;2023-04-03T11:29:36;7.30;99.90
20182;DHT22;10250;50.756;6.172;2023-04-03T11:32:34;7.50;99.90
20182;DHT22;10250;50.756;6.172;2023-04-03T11:35:07;7.30;99.90
20182;DHT22;10250;50.756;6.172;2023-04-03T11:37:01;7.40;99.90
20182;DHT22;10250;50.756;6.172;2023-04-03T11:39:16;7.40;99.90
20182;DHT22;10250;50.756;6.172;2023-04-03T11:41:27;7.30;99.90
20182;DHT22;10250;50.756;6.172;2023-04-03T11:43:31;7.20;99.90
20182;DHT22;10250;50.756;6.172;2023-04-03T11:47:53;7.20;99.90
20182;DHT22;10250;50.756;6.172;2023-04-03T11:50:01;7.30;99.90
20182;DHT22;10250;50.756;6.172;2023-04-03T11:52:01;7.30;99.90
20182;DHT22;10250;50.756;6.172;2023-04-03T11:56:57;7.20;99.90
20182;DHT22;10250;50.756;6.172;2023-04-03T11:59:19;7.10;99.90
20182;DHT22;10250;50.756;6.172;2023-04-03T12:01:52;7.10;99.90
20182;DHT22;10250;50.756;6.172;2023-04-03T12:03:57;7.20;99.90
20182;DHT22;10250;50.756;6.172;2023-04-03T12:10:34;7.30;99.90
20182;DHT22;10250;50.756;6.172;2023-04-03T12:12:39;7.40;99.90
20182;DHT22;10250;50.756;6.172;2023-04-03T12:14:41;7.60;99.90
20182;DHT22;10250;50.756;6.172;2023-04-03T12:16:43;7.40;99.90
20182;DHT22;10250;50.756;6.172;2023-04-03T12:20:58;7.90;99.90
20182;DHT22;10250;50.756;6.172;2023-04-03T12:23:32;7.50;99.90
20182;DHT22;10250;50.756;6.172;2023-04-03T12:25:48;7.50;99.90
20182;DHT22;10250;50.756;6.172;2023-04-03T12:27:51;7.60;99.90
20182;DHT22;10250;50.756;6.172;2023-04-03T12:29:58;7.80;99.90
20182;DHT22;10250;50.756;6.172;2023-04-03T12:37:04;7.70;61.80
20182;DHT22;10250;50.756;6.172;2023-04-03T12:39:35;7.50;50.90
20182;DHT22;10250;50.756;6.172;2023-04-03T12:46:22;7.80;65.70
20182;DHT22;10250;50.756;6.172;2023-04-03T12:48:25;7.80;61.00
20182;DHT22;10250;50.756;6.172;2023-04-03T12:50:31;7.70;72.40
20182;DHT22;10250;50.756;6.172;2023-04-03T12:52:44;7.70;72.30
20182;DHT22;10250;50.756;6.172;2023-04-03T12:54:46;7.70;64.40
20182;DHT22;10250;50.756;6.172;2023-04-03T12:56:48;7.80;68.80
20182;DHT22;10250;50.756;6.172;2023-04-03T12:58:49;7.90;78.50
20182;DHT22;10250;50.756;6.172;2023-04-03T13:01:10;7.90;79.70
20182;DHT22;10250;50.756;6.172;2023-04-03T13:03:25;7.90;77.90
20182;DHT22;10250;50.756;6.172;2023-04-03T13:05:28;7.80;86.70
20182;DHT22;10250;50.756;6.172;2023-04-03T13:07:31;7.70;78.30
20182;DHT22;10250;50.756;6.172;2023-04-03T13:09:33;7.70;72.80
20182;DHT22;10250;50.756;6.172;2023-04-03T13:11:37;7.60;73.00
20182;DHT22;10250;50.756;6.172;2023-04-03T13:15:57;7.70;79.80
20182;DHT22;10250;50.756;6.172;2023-04-03T13:17:57;7.70;85.30
20182;DHT22;10250;50.756;6.172;2023-04-03T13:20:11;8.10;88.30
20182;DHT22;10250;50.756;6.172;2023-04-03T13:24:33;8.10;82.10
20182;DHT22;10250;50.756;6.172;2023-04-03T13:26:35;8.20;87.90
20182;DHT22;10250;50.756;6.172;2023-04-03T13:28:36;8.00;79.00
20182;DHT22;10250;50.756;6.172;2023-04-03T13:30:40;7.80;65.10
20182;DHT22;10250;50.756;6.172;2023-04-03T13:32:43;7.70;54.60
20182;DHT22;10250;50.756;6.172;2023-04-03T13:34:44;7.60;55.00
20182;DHT22;10250;50.756;6.172;2023-04-03T13:39:06;7.80;58.80
20182;DHT22;10250;50.756;6.172;2023-04-03T13:41:39;7.80;50.80
20182;DHT22;10250;50.756;6.172;2023-04-03T13:43:40;7.80;49.50
20182;DHT22;10250;50.756;6.172;2023-04-03T13:45:57;8.00;51.10
20182;DHT22;10250;50.756;6.172;2023-04-03T13:48:19;7.80;46.20
20182;DHT22;10250;50.756;6.172;2023-04-03T13:50:22;7.70;43.20
20182;DHT22;10250;50.756;6.172;2023-04-03T13:52:32;7.80;42.70
20182;DHT22;10250;50.756;6.172;2023-04-03T13:54:38;7.90;39.90
20182;DHT22;10250;50.756;6.172;2023-04-03T13:56:40;8.10;47.10
20182;DHT22;10250;50.756;6.172;2023-04-03T14:01:17;8.00;63.70
20182;DHT22;10250;50.756;6.172;2023-04-03T14:03:30;7.90;38.00
20182;DHT22;10250;50.756;6.172;2023-04-03T14:05:31;7.90;33.40
20182;DHT22;10250;50.756;6.172;2023-04-03T14:07:32;8.10;44.50
20182;DHT22;10250;50.756;6.172;2023-04-03T14:09:32;8.00;38.10
20182;DHT22;10250;50.756;6.172;2023-04-03T14:11:34;7.90;40.00
20182;DHT22;10250;50.756;6.172;2023-04-03T14:13:35;8.20;38.60
20182;DHT22;10250;50.756;6.172;2023-04-03T14:15:35;8.20;40.60
20182;DHT22;10250;50.756;6.172;2023-04-03T14:17:36;8.20;35.10
20182;DHT22;10250;50.756;6.172;2023-04-03T14:19:37;8.20;28.40
20182;DHT22;10250;50.756;6.172;2023-04-03T14:21:37;8.10;31.60
20182;DHT22;10250;50.756;6.172;2023-04-03T14:23:38;8.10;37.30
20182;DHT22;10250;50.756;6.172;2023-04-03T14:25:39;8.10;29.50
20182;DHT22;10250;50.756;6.172;2023-04-03T14:27:42;8.20;30.70